Falcon — WBE7134 — position and weather

sailwx.info

Track history (hours):
 
Tides and Currents Weather Stations Pressure Air Temp Water Temp Dewpoint Dewpoint Depression Visibility Wind Speed Wind Dir Waves Ship Positions

Falcon

Owner: Allied Transportation Company, NORFOLK, VA. More information available from US FCC via Universal Licensing System and Coast Guard Vessel Documentation Center.

Last reported at 2017-Jan-16 23:25 UTC. Time now 2017-Jan-17 00:57 UTC.
Position N 26°37' W 079°59'.

Length 37 m; draft 8 m.

Type: Tug. MMSI: 366976720.

Date/timePositionNaut miles runAvg speedWind from/ knotsBaromVisibWave heightAir tempDewpointWater temp
2017-Jan-16 23:25N 26°37' W 079°59'5 0.8
2017-Jan-16 17:26N 26°32' W 079°57'6 6.3
2017-Jan-16 16:33N 26°27' W 080°00'5 4.9
2017-Jan-16 15:33N 26°23' W 080°03'4 4.3
2017-Jan-16 14:33N 26°19' W 080°03'3 3.4
2017-Jan-16 13:33N 26°22' W 080°02'3 2.5
2017-Jan-16 12:33N 26°24' W 080°01'3 2.5
2017-Jan-16 11:33N 26°27' W 080°02'3 2.8
2017-Jan-16 10:33N 26°30' W 080°00'2 2.1
2017-Jan-16 09:33N 26°32' W 079°60'6 0.9
2017-Jan-16 03:12N 26°38' W 079°59'4 5.8
2017-Jan-16 02:33N 26°34' W 079°60'5 5.1
2017-Jan-16 01:33N 26°29' W 080°01'5 4.9
2017-Jan-16 00:33N 26°24' W 080°02'5 5.1
2017-Jan-15 23:33N 26°19' W 080°02'3 3.0
2017-Jan-15 22:33N 26°16' W 080°02'3 3.4
2017-Jan-15 21:33N 26°19' W 080°02'4 3.7
2017-Jan-15 20:34N 26°23' W 080°02'4 3.9
2017-Jan-15 19:33N 26°27' W 080°01'4 3.8
2017-Jan-15 18:32N 26°31' W 079°60'14 3.6
2017-Jan-15 14:29N 26°45' W 080°01'3 3.0
2017-Jan-15 13:30N 26°47' W 079°58'13 4.4
2017-Jan-15 10:33N 26°35' W 080°00'1 0.2
2017-Jan-15 05:33N 26°34' W 079°59'4 4.0
2017-Jan-15 04:33N 26°30' W 079°60'3 3.5
2017-Jan-15 03:34N 26°27' W 080°01'4 3.5
2017-Jan-15 02:33N 26°23' W 080°01'3 3.4
2017-Jan-15 01:34N 26°20' W 080°02'4 3.5
2017-Jan-15 00:33N 26°16' W 080°02'1 1.3
2017-Jan-14 23:33N 26°18' W 080°02'4 4.2
2017-Jan-14 22:33N 26°22' W 080°01'4 4.1
2017-Jan-14 21:33N 26°26' W 080°01'4 4.0
2017-Jan-14 20:33N 26°30' W 080°00'15 3.6
2017-Jan-14 16:27N 26°45' W 079°60'3 3.0
2017-Jan-14 15:33N 26°47' W 079°60'3 2.9
2017-Jan-14 14:32N 26°47' W 079°56'3 2.6
2017-Jan-14 13:30N 26°48' W 079°59'5 5.6
2017-Jan-14 12:33N 26°53' W 080°00'6 5.7
2017-Jan-14 11:33N 26°59' W 079°60'286 8.1
2017-Jan-13 00:24N 31°43' W 080°35'7 8.5
2017-Jan-12 23:34N 31°49' W 080°32'9 8.7
2017-Jan-12 22:33N 31°56' W 080°26'9 9.2
2017-Jan-12 21:33N 32°02' W 080°17'235 8.3
2017-Jan-11 17:23N 34°16' W 076°27'7 8.3
2017-Jan-11 16:31N 34°21' W 076°21'8 8.2
2017-Jan-11 15:33N 34°27' W 076°15'281 7.8
2017-Jan-10 03:31N 38°56' W 074°32'37 8.9
2017-Jan-09 23:20N 39°28' W 074°09'7 8.9
2017-Jan-09 22:32N 39°35' W 074°05'9 9.1
2017-Jan-09 21:32N 39°43' W 073°60'37 9.3
2017-Jan-09 17:32N 40°20' W 073°55'9 9.4
2017-Jan-09 16:33N 40°29' W 073°54'1010.0
2017-Jan-09 15:34N 40°37' W 074°03'1010.4
2017-Jan-09 14:33N 40°47' W 073°60'10 1.0
2017-Jan-09 04:16N 40°56' W 073°54'0 0.0
2017-Jan-09 03:16N 40°56' W 073°54'0 0.0
2017-Jan-09 02:28N 40°56' W 073°54'0 0.0
2017-Jan-08 21:15N 40°56' W 073°54'0 0.0
2017-Jan-08 20:27N 40°56' W 073°54'0 0.0
2017-Jan-08 19:33N 40°56' W 073°54'0 0.0
2017-Jan-08 18:33N 40°56' W 073°54'0 0.0
2017-Jan-08 17:33N 40°56' W 073°54'0 0.0
2017-Jan-08 16:33N 40°56' W 073°54'0 0.0
2017-Jan-08 15:33N 40°56' W 073°54'0 0.0
2017-Jan-08 14:33N 40°56' W 073°54'0 0.0
2017-Jan-08 13:27N 40°56' W 073°54'0 0.0
2017-Jan-08 12:33N 40°56' W 073°54'0 0.0
2017-Jan-08 11:33N 40°56' W 073°54'0 0.0
2017-Jan-08 10:24N 40°56' W 073°54'0 0.0
2017-Jan-08 09:32N 40°56' W 073°54'0 0.0
2017-Jan-08 08:33N 40°56' W 073°54'0 0.0
2017-Jan-08 07:32N 40°56' W 073°54'0 0.0
2017-Jan-08 06:32N 40°56' W 073°54'0 0.0
2017-Jan-08 05:32N 40°56' W 073°54'0 0.0
2017-Jan-08 04:32N 40°56' W 073°54'0 0.0
2017-Jan-08 03:29N 40°56' W 073°54'0 0.0
2017-Jan-08 02:32N 40°56' W 073°54'0 0.0
2017-Jan-08 01:30N 40°56' W 073°54'0 0.0
2017-Jan-08 00:33N 40°56' W 073°54'0 0.0
2017-Jan-07 23:33N 40°56' W 073°54'0 0.0
2017-Jan-07 22:33N 40°56' W 073°54'0 0.0
2017-Jan-07 21:33N 40°56' W 073°54'0 0.0
2017-Jan-07 20:33N 40°56' W 073°54'0 0.0
2017-Jan-07 19:29N 40°56' W 073°54'0 0.0
2017-Jan-07 18:32N 40°56' W 073°54'0 0.0
2017-Jan-07 17:32N 40°56' W 073°54'0 0.0
2017-Jan-07 16:32N 40°56' W 073°54'0 0.0
2017-Jan-07 15:29N 40°56' W 073°54'0 0.0
2017-Jan-07 14:32N 40°56' W 073°54'0 0.0
2017-Jan-07 13:23N 40°56' W 073°54'0 0.0
2017-Jan-07 12:32N 40°56' W 073°54'0 0.0
2017-Jan-07 11:29N 40°56' W 073°54'0 0.0
2017-Jan-07 10:32N 40°56' W 073°54'0 0.0
2017-Jan-07 09:33N 40°56' W 073°54'0 0.0
2017-Jan-07 08:31N 40°56' W 073°54'0 0.0
2017-Jan-07 07:31N 40°56' W 073°54'0 0.0
2017-Jan-07 06:28N 40°56' W 073°54'0 0.0
2017-Jan-07 04:10N 40°56' W 073°54'0 0.0
2017-Jan-07 03:28N 40°56' W 073°54'0 0.0
2017-Jan-07 02:32N 40°56' W 073°54'0 0.0
2017-Jan-07 01:31N 40°56' W 073°54'0 0.0
2017-Jan-07 00:31N 40°56' W 073°54'0 0.0
2017-Jan-06 23:28N 40°56' W 073°54'  
Track history (hours):
 
Tides and Currents Weather Stations Pressure Air Temp Water Temp Dewpoint Dewpoint Depression Visibility Wind Speed Wind Dir Waves Ship Positions

Falcon

Owner: Allied Transportation Company, NORFOLK, VA. More information available from US FCC via Universal Licensing System and Coast Guard Vessel Documentation Center.

Last reported at 2017-Jan-16 23:25 UTC. Time now 2017-Jan-17 00:57 UTC.
Position N 26°37' W 079°59'.

Length 37 m; draft 8 m.

Type: Tug. MMSI: 366976720.

Date/timePositionNaut miles runAvg speedWind from/ knotsBaromVisibWave heightAir tempDewpointWater temp
2017-Jan-16 23:25N 26°37' W 079°59'5 0.8
2017-Jan-16 17:26N 26°32' W 079°57'6 6.3
2017-Jan-16 16:33N 26°27' W 080°00'5 4.9
2017-Jan-16 15:33N 26°23' W 080°03'4 4.3
2017-Jan-16 14:33N 26°19' W 080°03'3 3.4
2017-Jan-16 13:33N 26°22' W 080°02'3 2.5
2017-Jan-16 12:33N 26°24' W 080°01'3 2.5
2017-Jan-16 11:33N 26°27' W 080°02'3 2.8
2017-Jan-16 10:33N 26°30' W 080°00'2 2.1
2017-Jan-16 09:33N 26°32' W 079°60'6 0.9
2017-Jan-16 03:12N 26°38' W 079°59'4 5.8
2017-Jan-16 02:33N 26°34' W 079°60'5 5.1
2017-Jan-16 01:33N 26°29' W 080°01'5 4.9
2017-Jan-16 00:33N 26°24' W 080°02'5 5.1
2017-Jan-15 23:33N 26°19' W 080°02'3 3.0
2017-Jan-15 22:33N 26°16' W 080°02'3 3.4
2017-Jan-15 21:33N 26°19' W 080°02'4 3.7
2017-Jan-15 20:34N 26°23' W 080°02'4 3.9
2017-Jan-15 19:33N 26°27' W 080°01'4 3.8
2017-Jan-15 18:32N 26°31' W 079°60'14 3.6
2017-Jan-15 14:29N 26°45' W 080°01'3 3.0
2017-Jan-15 13:30N 26°47' W 079°58'13 4.4
2017-Jan-15 10:33N 26°35' W 080°00'1 0.2
2017-Jan-15 05:33N 26°34' W 079°59'4 4.0
2017-Jan-15 04:33N 26°30' W 079°60'3 3.5
2017-Jan-15 03:34N 26°27' W 080°01'4 3.5
2017-Jan-15 02:33N 26°23' W 080°01'3 3.4
2017-Jan-15 01:34N 26°20' W 080°02'4 3.5
2017-Jan-15 00:33N 26°16' W 080°02'1 1.3
2017-Jan-14 23:33N 26°18' W 080°02'4 4.2
2017-Jan-14 22:33N 26°22' W 080°01'4 4.1
2017-Jan-14 21:33N 26°26' W 080°01'4 4.0
2017-Jan-14 20:33N 26°30' W 080°00'15 3.6
2017-Jan-14 16:27N 26°45' W 079°60'3 3.0
2017-Jan-14 15:33N 26°47' W 079°60'3 2.9
2017-Jan-14 14:32N 26°47' W 079°56'3 2.6
2017-Jan-14 13:30N 26°48' W 079°59'5 5.6
2017-Jan-14 12:33N 26°53' W 080°00'6 5.7
2017-Jan-14 11:33N 26°59' W 079°60'286 8.1
2017-Jan-13 00:24N 31°43' W 080°35'7 8.5
2017-Jan-12 23:34N 31°49' W 080°32'9 8.7
2017-Jan-12 22:33N 31°56' W 080°26'9 9.2
2017-Jan-12 21:33N 32°02' W 080°17'235 8.3
2017-Jan-11 17:23N 34°16' W 076°27'7 8.3
2017-Jan-11 16:31N 34°21' W 076°21'8 8.2
2017-Jan-11 15:33N 34°27' W 076°15'281 7.8
2017-Jan-10 03:31N 38°56' W 074°32'37 8.9
2017-Jan-09 23:20N 39°28' W 074°09'7 8.9
2017-Jan-09 22:32N 39°35' W 074°05'9 9.1
2017-Jan-09 21:32N 39°43' W 073°60'37 9.3
2017-Jan-09 17:32N 40°20' W 073°55'9 9.4
2017-Jan-09 16:33N 40°29' W 073°54'1010.0
2017-Jan-09 15:34N 40°37' W 074°03'1010.4
2017-Jan-09 14:33N 40°47' W 073°60'10 1.0
2017-Jan-09 04:16N 40°56' W 073°54'0 0.0
2017-Jan-09 03:16N 40°56' W 073°54'0 0.0
2017-Jan-09 02:28N 40°56' W 073°54'0 0.0
2017-Jan-08 21:15N 40°56' W 073°54'0 0.0
2017-Jan-08 20:27N 40°56' W 073°54'0 0.0
2017-Jan-08 19:33N 40°56' W 073°54'0 0.0
2017-Jan-08 18:33N 40°56' W 073°54'0 0.0
2017-Jan-08 17:33N 40°56' W 073°54'0 0.0
2017-Jan-08 16:33N 40°56' W 073°54'0 0.0
2017-Jan-08 15:33N 40°56' W 073°54'0 0.0
2017-Jan-08 14:33N 40°56' W 073°54'0 0.0
2017-Jan-08 13:27N 40°56' W 073°54'0 0.0
2017-Jan-08 12:33N 40°56' W 073°54'0 0.0
2017-Jan-08 11:33N 40°56' W 073°54'0 0.0
2017-Jan-08 10:24N 40°56' W 073°54'0 0.0
2017-Jan-08 09:32N 40°56' W 073°54'0 0.0
2017-Jan-08 08:33N 40°56' W 073°54'0 0.0
2017-Jan-08 07:32N 40°56' W 073°54'0 0.0
2017-Jan-08 06:32N 40°56' W 073°54'0 0.0
2017-Jan-08 05:32N 40°56' W 073°54'0 0.0
2017-Jan-08 04:32N 40°56' W 073°54'0 0.0
2017-Jan-08 03:29N 40°56' W 073°54'0 0.0
2017-Jan-08 02:32N 40°56' W 073°54'0 0.0
2017-Jan-08 01:30N 40°56' W 073°54'0 0.0
2017-Jan-08 00:33N 40°56' W 073°54'0 0.0
2017-Jan-07 23:33N 40°56' W 073°54'0 0.0
2017-Jan-07 22:33N 40°56' W 073°54'0 0.0
2017-Jan-07 21:33N 40°56' W 073°54'0 0.0
2017-Jan-07 20:33N 40°56' W 073°54'0 0.0
2017-Jan-07 19:29N 40°56' W 073°54'0 0.0
2017-Jan-07 18:32N 40°56' W 073°54'0 0.0
2017-Jan-07 17:32N 40°56' W 073°54'0 0.0
2017-Jan-07 16:32N 40°56' W 073°54'0 0.0
2017-Jan-07 15:29N 40°56' W 073°54'0 0.0
2017-Jan-07 14:32N 40°56' W 073°54'0 0.0
2017-Jan-07 13:23N 40°56' W 073°54'0 0.0
2017-Jan-07 12:32N 40°56' W 073°54'0 0.0
2017-Jan-07 11:29N 40°56' W 073°54'0 0.0
2017-Jan-07 10:32N 40°56' W 073°54'0 0.0
2017-Jan-07 09:33N 40°56' W 073°54'0 0.0
2017-Jan-07 08:31N 40°56' W 073°54'0 0.0
2017-Jan-07 07:31N 40°56' W 073°54'0 0.0
2017-Jan-07 06:28N 40°56' W 073°54'0 0.0
2017-Jan-07 04:10N 40°56' W 073°54'0 0.0
2017-Jan-07 03:28N 40°56' W 073°54'0 0.0
2017-Jan-07 02:32N 40°56' W 073°54'0 0.0
2017-Jan-07 01:31N 40°56' W 073°54'0 0.0
2017-Jan-07 00:31N 40°56' W 073°54'0 0.0
2017-Jan-06 23:28N 40°56' W 073°54'  

Dump ship's entire track history